LRIA Airport Information

Runway Information
Runway 15 Length 5841 ft width 98 ft
Elevation 397 ft Threshold 0 ft Heading 154
Runway 33 Length 5841 ft Width 98 ft
Elevation 340 ft Threshold 0 ft Heading 334
Airport Frequencies
Type APP Name APP Frequency 119.2 MHZ
Type GCA Name PRECISION Frequency 118.8 MHZ
Type TWR Name TWR Frequency 119.2 MHZ
Airport Navaids
Type NDB Name Iasi Frequency 391 KHZ
Airport Weather Information & NOTAM
ADDS - METARS form results

(0619 UTC 16 September 2019)
Data provider http://aviationweather.gov/metar/data/
 
METAR text: LRIA 160600Z 22003KT 190V250 CAVOK 16/07 Q1018
Conditions at: LRIA (IASI , RO) observed 0600 UTC 16 September 2019
Temperature: 16.0°C (61°F)
Dewpoint: 7.0°C (45°F) [RH = 55%]
Pressure (altimeter): 30.06 inches Hg (1018.0 mb)
Winds: from the SW (220 degrees) at 3 MPH (3 knots; 1.5 m/s)
Visibility: 6 or more miles (10+ km)
Ceiling: ceiling and visibility are OK
Clouds: unknown
Weather: no significant weather observed at this time

METAR text: LRIA 160530Z 24003KT 210V270 CAVOK 14/08 Q1018
Conditions at: LRIA (IASI , RO) observed 0530 UTC 16 September 2019
Temperature: 14.0°C (57°F)
Dewpoint: 8.0°C (46°F) [RH = 67%]
Pressure (altimeter): 30.06 inches Hg (1018.0 mb)
Winds: from the WSW (240 degrees) at 3 MPH (3 knots; 1.5 m/s)
Visibility: 6 or more miles (10+ km)
Ceiling: ceiling and visibility are OK
Clouds: unknown
Weather: no significant weather observed at this time

Forecast for: LRIA (IASI , RO)
Text: TAF LRIA 160500Z 1606/1615 VRB04KT CAVOK
Forecast period: 0600 to 1500 UTC 16 September 2019
Forecast type: FROM: standard forecast or significant change
Winds: variable direction winds at 5 MPH (4 knots; 2.1 m/s)
Visibility: 6 or more miles 10+ km)
Ceiling: unknown
Clouds: missing
Weather: NSW  (no significant weather)